This is the latest recevied weather packets stored in our database for station/object ON5MM-5. If no packets are shown the sender has not sent any weather packets the latest 10 day(s).
| Time | Temp. | Humidity | Pressure | Rain* | Wind** | Luminosity | Snow |
|---|---|---|---|---|---|---|---|
| 1777775702 | 11.11° C | 87% | 1014.4 hPa | 0 mm | 1.79 m/s, ° | - | - |
| 1777775402 | 11.67° C | 86% | 1014.4 hPa | 0 mm | 1.79 m/s, ° | - | - |
| 1777775102 | 11.67° C | 86% | 1014.5 hPa | 0 mm | 0.45 m/s, ° | - | - |
| 1777774803 | 11.67° C | 86% | 1014.4 hPa | 0 mm | 0.45 m/s, ° | - | - |
| 1777774502 | 11.67° C | 85% | 1014.4 hPa | 0 mm | 1.34 m/s, ° | - | - |
| 1777774202 | 11.67° C | 85% | 1014.4 hPa | 0 mm | 1.34 m/s, ° | - | - |
| 1777773902 | 11.67° C | 85% | 1014.5 hPa | 0 mm | 0 m/s | - | - |
| 1777773602 | 11.67° C | 84% | 1014.6 hPa | 0 mm | 0 m/s | - | - |
| 1777773303 | 11.67° C | 83% | 1014.6 hPa | 0 mm | 0.45 m/s, ° | - | - |
| 1777773002 | 12.22° C | 81% | 1014.7 hPa | 0 mm | 0 m/s | - | - |
| 1777772702 | 12.78° C | 80% | 1014.7 hPa | 0 mm | 0.89 m/s, ° | - | - |
| 1777772402 | 12.78° C | 80% | 1014.8 hPa | 0 mm | 1.34 m/s, ° | - | - |
| 1777772102 | 12.78° C | 80% | 1014.8 hPa | 0 mm | 1.79 m/s, ° | - | - |
| 1777771802 | 12.22° C | 84% | 1014.9 hPa | 0 mm | 1.79 m/s, ° | - | - |
| 1777771502 | 12.22° C | 85% | 1014.8 hPa | 0 mm | 1.79 m/s, ° | - | - |
| 1777771202 | 12.22° C | 85% | 1014.9 hPa | 0 mm | 1.34 m/s, ° | - | - |
| 1777770902 | 12.22° C | 84% | 1014.9 hPa | 0 mm | 1.79 m/s, ° | - | - |
| 1777770603 | 12.22° C | 83% | 1014.9 hPa | 0 mm | 1.79 m/s, ° | - | - |
| 1777770303 | 12.78° C | 83% | 1014.8 hPa | 0 mm | 1.79 m/s, ° | - | - |
| 1777770003 | 12.22° C | 86% | 1014.9 hPa | 0 mm | 1.79 m/s, ° | - | - |
| 1777769703 | 12.22° C | 87% | 1015 hPa | 0 mm | 1.79 m/s, ° | - | - |
| 1777769402 | 11.67° C | 88% | 1015 hPa | 0 mm | 1.34 m/s, ° | - | - |
| 1777769102 | 11.67° C | 88% | 1015 hPa | 0 mm | 1.34 m/s, ° | - | - |
| 1777768802 | 11.67° C | 88% | 1015 hPa | 0 mm | 0 m/s | - | - |
| 1777768502 | 11.67° C | 87% | 1015.1 hPa | 0 mm | 0.45 m/s, ° | - | - |
* Rain latest hour (hover to see other rain measurements)
** Current wind speed in m/s (hover to see current wind gust speed)